x

Central Aleutians 230nm Sw Dutch Harbor (46072) Wave Buoy

12:50am - Tue 28th Jun 2016 All times are UTC.

  • Sig Wave height 3.3ft
  • Swell Direction
  • Peak Period 15s
  • Average Period 6s
  • Wind
    13mph, 16mph gusts
  • Sea Temp 49°f
  • 空気 Temp 48°f
  • Sea Pressure 1014.9mb

More Historic Weather Station data

Upgrade to MSW Pro to gain access to the past 30 days of data for over 8000 Wavebouys and Weather Stations around the globe.

Join Pro

Comparision Forecast

View Surf forecast
   
Tue 06/28 12:50am 3.5ft 15s 6s 13 16 mph 1014.9mb 49f 48f
Mon 06/27 11:50pm 3.5ft 15s 6s 13 16 mph 1015.6mb 49f 48f
10:50pm 3ft 16s 6s 11 13 mph 1016mb 49f 48f
9:50pm 3.5ft 14s 6s 11 13 mph 1017mb 49f 48f
8:50pm 3ft 15s 6s 16 18 mph 1016.4mb 49f 48f
7:50pm 3ft 15s 6s 13 16 mph 1017mb 49f 48f
6:50pm 3.5ft 16s 6s 13 16 mph 1017.2mb 49f 48f
5:50pm 3.5ft 16s 6s 16 18 mph 1017.2mb 49f 48f
4:50pm 3ft 15s 6s 13 16 mph 1017.7mb 49f 47f
3:50pm 3ft 16s 6s 13
mph
1017.9mb 49f 47f
2:50pm 3ft 15s 5s 13 16 mph 1017.9mb 49f 47f
1:50pm 3ft 15s 6s 13 16 mph 1018.2mb 49f 47f
12:50pm 3ft 16s 6s 11 13 mph 1018.9mb 49f 47f
11:50am 3ft 16s 6s 13 16 mph 1019mb 49f 47f
10:50am 3ft 10s 6s 11 13 mph 1019.4mb 49f 46f
9:50am 2.5ft 16s 6s 13
mph
1019.8mb 49f 46f
8:50am 2.5ft 15s 6s 13 16 mph 1019.9mb 50f 46f
7:50am 2.5ft 16s 7s 11 13 mph 1020mb 50f 45f
6:50am 3ft 16s 7s 11 13 mph 1020.1mb 50f 45f
5:50am 3ft 16s 7s 11 13 mph 1020.1mb 50f 45f
4:50am 3ft 10s 7s 11
mph
1020.4mb 50f 45f
3:50am 3ft 16s 7s 9 11 mph 1020.7mb 50f 44f
2:50am 3ft 11s 7s 11 13 mph 1021mb 50f 44f
1:50am 3.5ft 16s 8s 9 11 mph 1021.3mb 49f 44f
12:50am 3ft 10s 7s 11 13 mph 1021.7mb 49f 44f
Sun 06/26 11:50pm 3ft 17s 7s 9 11 mph 1022mb 49f 44f
10:50pm 3ft 16s 8s 9 11 mph 1022.1mb 49f 44f
9:50pm 3ft 17s 8s 9 11 mph 1022.3mb 50f 44f
8:50pm 3.5ft 16s 8s 9
mph
1022.3mb 49f 43f
7:50pm 3ft 16s 9s 9
mph
1022.4mb 49f 43f
6:50pm 3.5ft 16s 9s 9 11 mph 1022.5mb 49f 42f
5:50pm 3.5ft 17s 9s 7 11 mph 1022.5mb 49f 42f
4:50pm 3.5ft 17s 8s 7 9 mph 1022.3mb 49f 42f
3:50pm 3.5ft 16s 8s 7 9 mph 1022.2mb 49f 42f
2:50pm 3ft 17s 7s 7 11 mph 1022.4mb 48f 42f
1:50pm 3.5ft 11s 8s 4 7 mph 1022.6mb 48f 42f
12:50pm 3ft 11s 8s 7 9 mph 1022.9mb 48f 42f
11:50am 3ft 17s 8s 7 11 mph 1023mb 48f 43f
10:50am 3ft 17s 8s 7 9 mph 1023.2mb 49f 43f
9:50am 2.5ft 17s 8s 7 9 mph 1023.5mb 49f 43f
7:50am 2.5ft 17s 8s 4 9 mph 1023.6mb 49f 44f
6:50am 3ft 16s 8s 4 9 mph 1023.4mb 49f 44f
5:50am 3ft 17s 7s 4 7 mph 1023.4mb 49f 44f
4:50am 3.5ft 17s 7s 4 7 mph 1023.2mb 49f 44f
3:50am 3.5ft 17s 7s 4 7 mph 1023.4mb 48f 44f
2:50am 3.5ft 17s 7s 4 7 mph 1023.5mb 48f 44f
1:50am 3.5ft 7s 6s 4 7 mph 1024.1mb 48f 43f
12:50am 3.5ft 16s 7s 7 9 mph 1024mb 48f 43f
Sat 06/25 11:50pm 3.5ft 17s 6s 7 9 mph 1024mb 48f 43f
10:50pm 3.5ft 8s 6s 7
mph
1024.4mb 48f 43f
9:50pm 3.5ft 7s 6s 7 9 mph 1024.6mb 48f 43f
8:50pm 3.5ft 17s 6s 7 9 mph 1024.5mb 48f 43f
7:50pm 3.5ft 16s 6s 9 11 mph 1024.4mb 47f 43f
6:50pm 4ft 16s 6s 9 11 mph 1024.4mb 47f 43f
5:50pm 4ft 7s 6s 11 16 mph 1024.3mb 47f 42f
4:50pm 4ft 16s 6s 9 11 mph 1024.6mb 47f 42f
3:50pm 4.5ft 6s 5s 9 11 mph 1024.4mb 47f 43f
2:50pm 4.5ft 5s 5s 9 11 mph 1024.5mb 47f 43f
1:50pm 4.5ft 7s 5s 9 11 mph 1024.6mb 47f 43f
12:50pm 5ft 7s 6s 9 11 mph 1024.8mb 46f 43f
11:50am 5ft 6s 6s 9 11 mph 1024.9mb 45f 42f
10:50am 5ft 6s 6s 9 11 mph 1025.1mb 45f 43f
9:50am 5.5ft 6s 6s 9 11 mph 1025.2mb 45f 43f
8:50am 5ft 6s 6s 9 11 mph 1025.3mb 45f 42f
7:50am 5.5ft 9s 6s 11 16 mph 1025mb 45f 43f
6:50am 5.5ft 7s 6s 16 18 mph 1024.8mb 45f 44f
5:50am 5.5ft 6s 6s 16 20 mph 1024.8mb 45f 44f
4:50am 5.5ft 7s 6s 16 20 mph 1024.9mb 45f 45f
3:50am 6ft 7s 6s 18 20 mph 1025.1mb 45f 45f
2:50am 6ft 7s 6s 16 22 mph 1025.2mb 46f 45f
1:50am 6.5ft 6s 6s 18 20 mph 1025.5mb 46f 45f
12:50am 6.5ft 7s 6s 18 22 mph 1026mb 46f 45f
Fri 06/24 11:50pm 6.5ft 7s 6s 20 25 mph 1025.9mb 46f 45f
10:50pm 6ft 7s 6s 18 20 mph 1026.3mb 46f 45f
9:50pm 7ft 7s 6s 16 20 mph 1026.8mb 46f 45f
8:50pm 6.5ft 7s 6s 22 27 mph 1026.5mb 46f 44f
7:50pm 6ft 7s 6s 20 25 mph 1026.6mb 47f 44f
6:50pm 6ft 7s 6s 22 27 mph 1026.7mb 47f 44f
5:50pm 5.5ft 7s 6s 20 22 mph 1026.9mb 47f 44f
4:50pm 6.5ft 7s 6s 18 20 mph 1027mb 47f 44f
3:50pm 6ft 7s 6s 20 25 mph 1026.5mb 47f 44f
2:50pm 7ft 7s 6s 22 27 mph 1026.6mb 47f 44f
1:50pm 6ft 7s 5s 20 25 mph 1026.8mb 46f 44f
12:50pm 6.5ft 7s 6s 22 27 mph 1027mb 46f 44f
11:50am 6.5ft 7s 6s 20 25 mph 1027.3mb 46f 44f
10:50am 7.5ft 7s 6s 20 25 mph 1027.5mb 46f 44f
9:50am 7ft 7s 6s 18 22 mph 1027.5mb 45f 45f
8:50am 6ft 7s 6s 20 25 mph 1027.5mb 45f 45f
7:50am 6.5ft 7s 6s 20 25 mph 1027.4mb 45f 45f
6:50am 6ft 8s 6s 25 29 mph 1026.8mb 46f 45f
5:50am 6.5ft 7s 6s 20 25 mph 1027.4mb 46f 45f
4:50am 7ft 7s 6s 20 22 mph 1027.2mb 46f 45f
3:50am 7ft 8s 6s 20 25 mph 1027.5mb 46f 45f
2:50am 7ft 8s 6s 18 22 mph 1027.5mb 46f 45f